Time;durP1;ratioP1;P1;durP2;ratioP2;P2;SDS_P1;SDS_P2;PMS_P1;PMS_P2;Temp;Humidity;BMP_temperature;BMP_pressure;BME280_temperature;BME280_humidity;BME280_pressure;Samples;Min_cycle;Max_cycle;Signal;HPM_P1;HPM_P2
2024/04/03 00:01:52;;;;;;;3.63;1.73;;;12.90;94.60;;;;;;5053850;28;20503;-69
2024/04/03 00:04:38;;;;;;;3.20;1.63;;;12.90;94.70;;;;;;5037299;28;20484;-70
2024/04/03 00:07:24;;;;;;;2.40;1.60;;;12.90;94.80;;;;;;5048046;28;20040;-70
2024/04/03 00:10:11;;;;;;;1.45;1.35;;;12.90;94.90;;;;;;5051710;28;20452;-68
2024/04/03 00:12:57;;;;;;;1.70;1.40;;;12.90;94.90;;;;;;5046809;28;20454;-68
2024/04/03 00:15:44;;;;;;;2.55;1.40;;;12.90;95.00;;;;;;5053798;28;20107;-68
2024/04/03 00:18:30;;;;;;;2.67;1.33;;;12.90;95.00;;;;;;5047645;28;20047;-68
2024/04/03 00:21:15;;;;;;;2.50;1.45;;;12.90;95.00;;;;;;5034335;28;20053;-68
2024/04/03 00:24:02;;;;;;;3.85;2.10;;;12.90;95.00;;;;;;5038706;28;20064;-68
2024/04/03 00:26:48;;;;;;;2.05;1.40;;;12.90;95.10;;;;;;5049378;28;20041;-68
2024/04/03 00:29:34;;;;;;;3.22;1.98;;;12.90;95.10;;;;;;5048472;28;20041;-68
2024/04/03 00:32:20;;;;;;;3.78;2.42;;;12.90;95.10;;;;;;5051206;28;20041;-68
2024/04/03 00:35:06;;;;;;;2.72;1.75;;;12.90;95.10;;;;;;5047861;28;20048;-67
2024/04/03 00:37:52;;;;;;;4.35;2.10;;;12.80;95.10;;;;;;5048767;28;20044;-69
2024/04/03 00:40:38;;;;;;;4.38;1.58;;;12.80;95.10;;;;;;5035599;28;20497;-68
2024/04/03 00:43:28;;;;;;;3.45;1.95;;;12.90;95.30;;;;;;5052307;28;20434;-68
2024/04/03 00:46:16;;;;;;;3.75;1.83;;;12.80;95.40;;;;;;5047553;28;20201;-68
2024/04/03 00:49:03;;;;;;;2.92;1.95;;;12.80;95.30;;;;;;5047815;28;20045;-68
2024/04/03 00:51:50;;;;;;;4.20;1.60;;;12.80;95.40;;;;;;5024879;28;20049;-71
2024/04/03 00:54:36;;;;;;;3.50;2.20;;;12.80;95.40;;;;;;5048089;28;20168;-72
2024/04/03 00:57:22;;;;;;;4.70;2.00;;;12.80;95.50;;;;;;5043700;28;20092;-71
2024/04/03 01:00:08;;;;;;;3.00;1.60;;;12.80;95.50;;;;;;5051020;28;20037;-70
2024/04/03 01:02:54;;;;;;;4.65;2.67;;;12.80;95.60;;;;;;5049005;28;20484;-71
2024/04/03 01:05:40;;;;;;;3.08;1.92;;;12.80;95.60;;;;;;5032089;28;20128;-71
2024/04/03 01:08:26;;;;;;;3.53;2.13;;;12.70;95.60;;;;;;5041407;28;20485;-71
2024/04/03 01:11:12;;;;;;;3.92;2.17;;;12.70;95.60;;;;;;5052939;28;20562;-70
2024/04/03 01:13:58;;;;;;;4.95;2.25;;;12.70;95.90;;;;;;5050537;28;20061;-71
2024/04/03 01:16:44;;;;;;;4.97;2.10;;;12.70;95.70;;;;;;5049023;28;20052;-69
2024/04/03 01:19:30;;;;;;;4.95;2.13;;;12.70;95.70;;;;;;5050831;28;20447;-69
2024/04/03 01:22:16;;;;;;;4.45;2.17;;;12.80;95.70;;;;;;5034691;28;20068;-70
2024/04/03 01:25:02;;;;;;;5.45;1.77;;;12.70;95.80;;;;;;5048673;28;20052;-70
2024/04/03 01:27:48;;;;;;;3.85;2.42;;;12.80;95.80;;;;;;5043600;28;20040;-70
2024/04/03 01:30:34;;;;;;;3.95;2.05;;;12.70;95.80;;;;;;5052242;28;20045;-70
2024/04/03 01:33:20;;;;;;;3.50;2.22;;;12.80;95.90;;;;;;5033060;28;20125;-70
2024/04/03 01:36:09;;;;;;;4.85;2.22;;;12.70;96.00;;;;;;5038741;28;20057;-71
2024/04/03 01:38:54;;;;;;;4.55;2.67;;;12.70;96.10;;;;;;5035177;28;20047;-70
2024/04/03 01:41:40;;;;;;;4.65;2.25;;;12.70;96.20;;;;;;5036769;28;20067;-72
2024/04/03 01:44:26;;;;;;;3.22;2.25;;;12.70;96.40;;;;;;5042332;28;20055;-71
2024/04/03 01:47:12;;;;;;;5.50;2.75;;;12.70;96.50;;;;;;5041805;28;20051;-72
2024/04/03 01:49:59;;;;;;;4.90;3.05;;;12.60;96.60;;;;;;5045736;28;20068;-72
2024/04/03 01:52:46;;;;;;;3.95;2.80;;;12.60;96.70;;;;;;5040296;28;20080;-72
2024/04/03 01:55:32;;;;;;;8.02;2.50;;;12.60;96.70;;;;;;5040330;28;20064;-72
2024/04/03 01:58:19;;;;;;;4.93;2.70;;;12.60;96.80;;;;;;5037779;28;20041;-72
2024/04/03 02:01:05;;;;;;;5.53;3.05;;;12.60;96.80;;;;;;5050112;28;20045;-72
2024/04/03 02:03:51;;;;;;;4.60;2.38;;;12.60;96.80;;;;;;5051486;28;20037;-72
2024/04/03 02:06:37;;;;;;;3.50;2.35;;;12.60;96.80;;;;;;5048536;28;20072;-72
2024/04/03 02:09:23;;;;;;;5.85;2.78;;;12.60;96.80;;;;;;5044403;28;20049;-72
2024/04/03 02:12:09;;;;;;;4.93;2.67;;;12.60;96.80;;;;;;5039684;28;20470;-72
2024/04/03 02:14:55;;;;;;;4.20;2.50;;;12.60;96.70;;;;;;5020428;28;20040;-71
2024/04/03 02:17:41;;;;;;;5.20;2.60;;;12.60;96.70;;;;;;5050325;28;20045;-71
2024/04/03 02:20:27;;;;;;;6.72;3.08;;;12.60;96.80;;;;;;5044647;28;20110;-71
2024/04/03 02:23:13;;;;;;;6.00;2.70;;;12.60;97.00;;;;;;5049015;28;20136;-71
2024/04/03 02:25:59;;;;;;;5.30;2.50;;;12.60;96.80;;;;;;5032229;28;20045;-71
2024/04/03 02:28:45;;;;;;;4.28;3.13;;;12.60;96.70;;;;;;5042829;28;20045;-71
2024/04/03 02:31:31;;;;;;;11.50;3.80;;;12.60;96.70;;;;;;5038360;28;20484;-71
2024/04/03 02:34:17;;;;;;;5.72;3.30;;;12.60;96.70;;;;;;5048322;28;20090;-71
2024/04/03 02:37:03;;;;;;;6.18;3.28;;;12.60;96.70;;;;;;5048749;28;20048;-71
2024/04/03 02:39:49;;;;;;;7.07;3.03;;;12.60;96.60;;;;;;5041555;28;20095;-70
2024/04/03 02:42:35;;;;;;;6.72;3.25;;;12.60;96.60;;;;;;5042280;28;20083;-71
2024/04/03 02:45:21;;;;;;;4.53;3.00;;;12.60;96.60;;;;;;5051619;28;20080;-70
2024/04/03 02:48:07;;;;;;;5.78;3.72;;;12.60;96.70;;;;;;5042160;28;20049;-70
2024/04/03 02:51:04;;;;;;;3.80;2.95;;;12.60;96.70;;;;;;5029902;28;20042;-70
2024/04/03 02:53:50;;;;;;;5.30;2.88;;;12.60;96.80;;;;;;5043070;28;20044;-73
2024/04/03 02:56:36;;;;;;;5.47;2.90;;;12.60;96.70;;;;;;5051399;28;20033;-73
2024/04/03 02:59:22;;;;;;;5.30;3.03;;;12.60;96.70;;;;;;5052794;28;20077;-73
2024/04/03 03:02:08;;;;;;;6.15;3.67;;;12.60;96.70;;;;;;5055474;28;20029;-74
2024/04/03 03:04:54;;;;;;;5.88;3.05;;;12.60;96.70;;;;;;5050829;28;20053;-73
2024/04/03 03:07:41;;;;;;;5.38;3.30;;;12.60;96.70;;;;;;5049195;28;20029;-74
2024/04/03 03:10:28;;;;;;;6.22;3.50;;;12.60;96.70;;;;;;5054931;28;20080;-74
2024/04/03 03:13:14;;;;;;;7.63;4.13;;;12.60;96.70;;;;;;5040966;28;20493;-73
2024/04/03 03:16:02;;;;;;;6.15;2.97;;;12.60;96.80;;;;;;5048931;28;20033;-71
2024/04/03 03:18:49;;;;;;;5.97;3.35;;;12.60;96.90;;;;;;5036702;28;20075;-73
2024/04/03 03:21:35;;;;;;;3.88;2.70;;;12.50;96.90;;;;;;5047796;28;20037;-72
2024/04/03 03:24:21;;;;;;;6.28;3.13;;;12.60;96.90;;;;;;5046119;28;20056;-71
2024/04/03 03:27:07;;;;;;;7.20;4.22;;;12.60;97.00;;;;;;5039509;28;20041;-79
2024/04/03 03:29:53;;;;;;;4.88;3.40;;;12.60;97.10;;;;;;5038054;28;20068;-73
2024/04/03 03:32:40;;;;;;;6.30;3.55;;;12.60;97.20;;;;;;5053228;28;20115;-73
2024/04/03 03:35:26;;;;;;;5.75;3.50;;;12.50;97.20;;;;;;5052588;28;20076;-73
2024/04/03 03:38:13;;;;;;;5.95;3.55;;;12.50;97.30;;;;;;5047077;28;20098;-72
2024/04/03 03:41:03;;;;;;;4.72;3.22;;;12.50;97.40;;;;;;5051760;28;20041;-72
2024/04/03 03:43:49;;;;;;;5.93;3.67;;;12.50;97.40;;;;;;5045544;28;20085;-73
2024/04/03 03:46:35;;;;;;;5.78;3.40;;;12.50;97.50;;;;;;5041555;28;20075;-73
2024/04/03 03:52:37;;;;;;;7.35;4.68;;;12.50;97.60;;;;;;5053556;28;20052;-74
2024/04/03 03:55:30;;;;;;;8.45;4.75;;;12.50;97.60;;;;;;5034993;28;20046;-73
2024/04/03 03:58:17;;;;;;;7.72;3.70;;;12.40;97.80;;;;;;5048812;28;20056;-73
2024/04/03 04:01:06;;;;;;;5.05;3.30;;;12.30;98.20;;;;;;5044517;28;20042;-73
2024/04/03 04:03:52;;;;;;;5.15;2.80;;;12.20;98.50;;;;;;5033619;28;20387;-74
2024/04/03 04:06:38;;;;;;;7.43;3.15;;;12.10;98.60;;;;;;5044547;28;20464;-74
2024/04/03 04:09:24;;;;;;;5.93;3.08;;;12.10;98.70;;;;;;5051166;28;20041;-74
2024/04/03 04:12:10;;;;;;;4.13;3.13;;;12.10;99.00;;;;;;5038242;28;20124;-74
2024/04/03 04:14:57;;;;;;;7.15;3.72;;;12.10;99.30;;;;;;5033336;28;20049;-73
2024/04/03 04:17:42;;;;;;;5.28;3.55;;;12.00;99.40;;;;;;5032672;28;20052;-73
2024/04/03 04:20:28;;;;;;;5.25;3.72;;;12.00;99.60;;;;;;5044835;28;20049;-74
2024/04/03 04:23:14;;;;;;;7.55;3.78;;;12.00;99.90;;;;;;5040846;28;20033;-74
2024/04/03 04:26:06;;;;;;;4.50;3.80;;;11.90;99.90;;;;;;5043906;28;20044;-74
2024/04/03 04:28:52;;;;;;;4.88;3.63;;;11.90;99.90;;;;;;5041994;28;20045;-74
2024/04/03 04:31:38;;;;;;;8.05;4.15;;;11.90;99.90;;;;;;5050016;28;20068;-74
2024/04/03 04:34:26;;;;;;;6.47;3.35;;;11.90;99.90;;;;;;5048847;28;20049;-75
2024/04/03 04:37:12;;;;;;;5.75;3.85;;;11.90;99.90;;;;;;5051221;28;20080;-73
2024/04/03 04:39:58;;;;;;;4.70;3.05;;;11.90;99.90;;;;;;5043065;28;20044;-73
2024/04/03 04:42:44;;;;;;;5.15;3.22;;;11.80;99.90;;;;;;5042514;28;20037;-74
2024/04/03 04:45:30;;;;;;;5.20;3.00;;;11.80;99.90;;;;;;5049985;28;20057;-74
2024/04/03 04:48:16;;;;;;;4.53;2.58;;;11.80;99.90;;;;;;5052695;28;20033;-75
2024/04/03 04:51:04;;;;;;;4.13;2.80;;;11.90;99.90;;;;;;5039453;28;20037;-74
2024/04/03 04:53:49;;;;;;;5.20;3.15;;;11.80;99.90;;;;;;5049407;28;20119;-74
2024/04/03 04:56:35;;;;;;;3.83;2.42;;;11.80;99.90;;;;;;5033501;28;20486;-74
2024/04/03 04:59:21;;;;;;;4.88;2.78;;;11.80;99.90;;;;;;5036683;28;20116;-74
2024/04/03 05:02:07;;;;;;;4.10;2.97;;;11.80;99.90;;;;;;5050084;28;20083;-72
2024/04/03 05:04:53;;;;;;;5.45;3.80;;;11.80;99.90;;;;;;5050234;28;20045;-72
2024/04/03 05:07:39;;;;;;;4.60;3.15;;;11.80;99.90;;;;;;5052455;28;20571;-72
2024/04/03 05:10:25;;;;;;;6.75;4.32;;;11.80;99.90;;;;;;5051603;28;20053;-71
2024/04/03 05:13:11;;;;;;;5.95;3.75;;;11.80;99.90;;;;;;5049364;28;20106;-75
2024/04/03 05:16:03;;;;;;;5.72;3.47;;;11.80;99.90;;;;;;5046944;28;20045;-71
2024/04/03 05:18:50;;;;;;;4.60;2.90;;;11.80;99.90;;;;;;5047900;28;20391;-68
2024/04/03 05:21:36;;;;;;;4.22;2.65;;;11.80;99.90;;;;;;5051205;28;20043;-67
2024/04/03 05:24:22;;;;;;;6.78;2.92;;;11.80;99.90;;;;;;5038592;28;20064;-67
2024/04/03 05:27:08;;;;;;;4.05;3.00;;;11.80;99.90;;;;;;5049710;28;20052;-68
2024/04/03 05:29:54;;;;;;;7.28;3.20;;;11.80;99.90;;;;;;5052013;28;20127;-67
2024/04/03 05:32:41;;;;;;;4.38;2.78;;;11.80;99.90;;;;;;5030836;28;20077;-71
2024/04/03 05:35:27;;;;;;;5.20;3.28;;;11.90;99.90;;;;;;5047516;28;20045;-70
2024/04/03 05:38:13;;;;;;;5.70;2.75;;;11.90;99.90;;;;;;5048824;28;20059;-69
2024/04/03 05:40:59;;;;;;;6.50;3.25;;;11.90;99.90;;;;;;5046714;28;20497;-67
2024/04/03 05:43:45;;;;;;;4.55;2.85;;;11.90;99.90;;;;;;5046483;28;20037;-67
2024/04/03 05:46:31;;;;;;;9.02;3.15;;;11.90;99.90;;;;;;5046386;28;20113;-68
2024/04/03 05:49:17;;;;;;;6.43;3.30;;;12.00;99.90;;;;;;5037934;28;20048;-68
2024/04/03 05:52:03;;;;;;;5.93;3.92;;;12.00;99.90;;;;;;5046769;28;20041;-68
2024/04/03 05:54:50;;;;;;;5.43;3.00;;;12.00;99.90;;;;;;5033826;28;20033;-67
2024/04/03 05:57:35;;;;;;;9.80;3.45;;;12.00;99.90;;;;;;5031314;28;20119;-68
2024/04/03 06:00:22;;;;;;;4.20;2.97;;;12.10;99.90;;;;;;5042131;28;22026;-67
2024/04/03 06:03:08;;;;;;;8.13;2.80;;;12.10;99.90;;;;;;5044859;28;20481;-67
2024/04/03 06:05:56;;;;;;;3.55;2.47;;;12.20;99.90;;;;;;5048777;28;20044;-67
2024/04/03 06:08:42;;;;;;;5.13;3.13;;;12.20;99.90;;;;;;5047463;28;20099;-74
2024/04/03 06:11:28;;;;;;;6.00;2.75;;;12.20;99.90;;;;;;5030325;28;20033;-75
2024/04/03 06:14:14;;;;;;;6.55;3.40;;;12.20;99.90;;;;;;5039970;28;20041;-74
2024/04/03 06:17:01;;;;;;;4.28;2.95;;;12.20;99.90;;;;;;5025895;28;20573;-75
2024/04/03 06:19:47;;;;;;;4.82;2.90;;;12.30;99.90;;;;;;5037329;28;20495;-74
2024/04/03 06:22:33;;;;;;;8.10;3.63;;;12.30;99.90;;;;;;5037253;28;20131;-75
2024/04/03 06:25:20;;;;;;;6.18;3.33;;;12.30;99.90;;;;;;5037617;28;20500;-75
2024/04/03 06:28:06;;;;;;;5.00;3.15;;;12.40;99.90;;;;;;5040816;28;20029;-75
2024/04/03 06:30:52;;;;;;;5.07;3.20;;;12.40;99.90;;;;;;5050635;28;20040;-75
2024/04/03 06:33:38;;;;;;;4.97;3.03;;;12.50;99.90;;;;;;5050561;28;20370;-74
2024/04/03 06:36:23;;;;;;;4.75;3.25;;;12.40;99.90;;;;;;5050162;28;20064;-75
2024/04/03 06:39:09;;;;;;;5.00;3.47;;;12.40;99.90;;;;;;5040545;28;20036;-72
2024/04/03 06:41:58;;;;;;;3.47;2.67;;;12.50;99.90;;;;;;5045784;28;20094;-72
2024/04/03 06:44:44;;;;;;;6.40;3.20;;;12.50;99.90;;;;;;5034310;28;20669;-72
2024/04/03 06:47:30;;;;;;;7.07;2.95;;;12.50;99.90;;;;;;5049418;28;20507;-71
2024/04/03 06:50:16;;;;;;;5.25;3.10;;;12.40;99.90;;;;;;5042064;28;20085;-72
2024/04/03 06:53:02;;;;;;;5.88;3.30;;;12.50;99.90;;;;;;5041261;28;20532;-71
2024/04/03 06:56:00;;;;;;;5.68;3.25;;;12.50;99.90;;;;;;5046351;28;20045;-71
2024/04/03 06:58:46;;;;;;;5.43;2.90;;;12.50;99.90;;;;;;5034581;28;20052;-73
2024/04/03 07:01:31;;;;;;;7.45;3.33;;;12.50;99.90;;;;;;5035882;28;20045;-73
2024/04/03 07:04:17;;;;;;;5.65;3.08;;;12.50;99.90;;;;;;5040652;28;20459;-73
2024/04/03 07:07:04;;;;;;;4.80;3.13;;;12.60;99.90;;;;;;5047858;28;20041;-73
2024/04/03 07:09:50;;;;;;;7.85;3.10;;;12.60;99.90;;;;;;5047530;28;20076;-74
2024/04/03 07:12:36;;;;;;;6.22;2.80;;;12.50;99.90;;;;;;5043692;28;20052;-75
2024/04/03 07:15:22;;;;;;;6.35;3.17;;;12.60;99.90;;;;;;5048451;28;20544;-73
2024/04/03 07:18:08;;;;;;;4.78;2.95;;;12.60;99.90;;;;;;5043463;28;20042;-75
2024/04/03 07:20:56;;;;;;;4.07;3.15;;;12.60;99.90;;;;;;5047445;28;20041;-72
2024/04/03 07:23:42;;;;;;;4.55;3.20;;;12.60;99.90;;;;;;5044125;28;20695;-75
2024/04/03 07:26:28;;;;;;;6.95;3.70;;;12.60;99.90;;;;;;5050870;28;20451;-74
2024/04/03 07:29:14;;;;;;;6.95;3.40;;;12.70;99.90;;;;;;5045753;28;20499;-74
2024/04/03 07:32:00;;;;;;;5.05;3.28;;;12.70;99.90;;;;;;5043678;28;20196;-74
2024/04/03 07:34:46;;;;;;;6.03;3.13;;;12.70;99.90;;;;;;5041077;28;20037;-74
2024/04/03 07:37:32;;;;;;;5.78;2.78;;;12.70;99.90;;;;;;5029494;28;20045;-74
2024/04/03 07:40:18;;;;;;;7.80;4.20;;;12.70;99.90;;;;;;5043012;28;20132;-74
2024/04/03 07:43:04;;;;;;;7.25;3.83;;;12.70;99.90;;;;;;5041706;28;20064;-74
2024/04/03 07:45:59;;;;;;;5.72;4.03;;;12.70;99.90;;;;;;5043845;28;20061;-75
2024/04/03 07:48:45;;;;;;;6.82;3.45;;;12.70;99.90;;;;;;5025205;28;20041;-74
2024/04/03 07:51:31;;;;;;;7.57;4.60;;;12.70;99.90;;;;;;5028474;28;20059;-75
2024/04/03 07:54:17;;;;;;;6.93;4.63;;;12.60;99.90;;;;;;5048738;28;20083;-76
2024/04/03 07:57:05;;;;;;;9.65;4.40;;;12.60;99.90;;;;;;5051695;28;20044;-76
2024/04/03 07:59:51;;;;;;;5.75;4.20;;;12.50;99.80;;;;;;5049051;28;20036;-75
2024/04/03 08:02:41;;;;;;;8.27;4.93;;;12.50;99.90;;;;;;5029376;28;20036;-76
2024/04/03 08:05:27;;;;;;;9.57;5.40;;;12.40;99.90;;;;;;5048705;28;20122;-76
2024/04/03 08:08:13;;;;;;;9.45;4.60;;;12.40;99.90;;;;;;5037037;28;20473;-76
2024/04/03 08:11:00;;;;;;;8.63;5.30;;;12.40;99.90;;;;;;5050083;28;20544;-76
2024/04/03 08:13:46;;;;;;;7.78;5.10;;;12.50;99.90;;;;;;5039561;28;20037;-76
2024/04/03 08:16:34;;;;;;;11.73;5.90;;;12.60;99.90;;;;;;5031463;28;20366;-77
2024/04/03 08:19:22;;;;;;;6.53;4.85;;;12.60;99.80;;;;;;5052011;28;20102;-75
2024/04/03 08:22:08;;;;;;;7.00;4.82;;;12.60;99.80;;;;;;5048413;28;20473;-76
2024/04/03 08:24:56;;;;;;;6.53;4.18;;;12.60;99.80;;;;;;5050860;28;20163;-75
2024/04/03 08:27:42;;;;;;;6.80;4.50;;;12.60;99.60;;;;;;5048564;28;20052;-75
2024/04/03 08:30:33;;;;;;;7.53;4.40;;;12.50;99.70;;;;;;5044067;28;20040;-76
2024/04/03 08:33:19;;;;;;;6.45;4.38;;;12.60;99.80;;;;;;5042162;28;20041;-75
2024/04/03 08:36:07;;;;;;;7.40;4.03;;;12.60;99.90;;;;;;5050966;28;20045;-76
2024/04/03 08:38:53;;;;;;;7.07;4.20;;;12.70;99.90;;;;;;5033938;28;20118;-76
2024/04/03 08:41:39;;;;;;;6.90;4.25;;;12.90;99.90;;;;;;5049235;28;20055;-75
2024/04/03 08:44:31;;;;;;;8.27;5.25;;;13.00;99.80;;;;;;5046233;28;20053;-76
2024/04/03 08:47:18;;;;;;;8.00;4.13;;;13.10;99.60;;;;;;5043023;28;20040;-76
2024/04/03 08:50:04;;;;;;;6.40;4.40;;;13.30;99.60;;;;;;5038718;28;20538;-77
2024/04/03 08:52:52;;;;;;;6.10;4.00;;;13.40;99.70;;;;;;5027303;28;20041;-77
2024/04/03 08:55:39;;;;;;;5.53;3.92;;;13.50;99.30;;;;;;5044731;28;20037;-77
2024/04/03 08:58:26;;;;;;;6.45;4.43;;;13.60;99.10;;;;;;5048078;28;20048;-77
2024/04/03 09:01:12;;;;;;;6.63;4.18;;;13.70;99.00;;;;;;5049602;28;20112;-77
2024/04/03 09:03:57;;;;;;;5.88;3.58;;;13.80;98.90;;;;;;5043420;28;20057;-74
2024/04/03 09:06:44;;;;;;;5.45;3.90;;;13.90;98.80;;;;;;5024934;28;20092;-72
2024/04/03 09:09:31;;;;;;;6.22;4.38;;;14.00;98.50;;;;;;5047812;28;20114;-83
2024/04/03 09:12:24;;;;;;;8.68;3.95;;;14.10;98.40;;;;;;5040243;28;20049;-83
2024/04/03 09:15:10;;;;;;;4.80;3.28;;;14.30;98.30;;;;;;5049046;28;20138;-82
2024/04/03 09:18:04;;;;;;;5.80;4.13;;;14.40;98.20;;;;;;5047892;28;20036;-82
2024/04/03 09:20:51;;;;;;;5.30;3.65;;;14.50;98.00;;;;;;5046032;28;20036;-82
2024/04/03 09:23:37;;;;;;;4.97;3.75;;;14.70;97.90;;;;;;5045687;28;20049;-80
2024/04/03 09:26:25;;;;;;;7.35;3.75;;;14.80;97.80;;;;;;5027481;28;20063;-83
2024/04/03 09:29:15;;;;;;;7.50;3.33;;;14.90;97.60;;;;;;5042471;28;20041;-82
2024/04/03 09:32:02;;;;;;;4.53;3.70;;;15.00;97.30;;;;;;5041806;28;20045;-82
2024/04/03 09:34:50;;;;;;;4.50;2.72;;;15.10;97.20;;;;;;5032575;28;20037;-80
2024/04/03 09:37:36;;;;;;;5.30;2.65;;;15.20;97.00;;;;;;5045061;28;20404;-82
2024/04/03 09:40:28;;;;;;;6.60;3.10;;;15.30;96.70;;;;;;5037447;28;20394;-82
2024/04/03 09:43:22;;;;;;;5.60;3.42;;;15.30;96.50;;;;;;5050581;28;20048;-82
2024/04/03 09:46:11;;;;;;;3.92;3.22;;;15.40;96.40;;;;;;5054778;28;20053;-80
2024/04/03 09:48:59;;;;;;;5.22;3.47;;;15.50;96.20;;;;;;5032412;28;20041;-83
2024/04/03 09:51:45;;;;;;;5.18;3.78;;;15.50;96.10;;;;;;5028460;28;20183;-81
2024/04/03 09:54:31;;;;;;;5.63;3.13;;;15.50;96.00;;;;;;5048487;28;20152;-81
2024/04/03 09:57:17;;;;;;;7.50;2.83;;;15.60;96.00;;;;;;5030248;28;20057;-83
2024/04/03 10:00:03;;;;;;;11.68;3.13;;;15.60;95.70;;;;;;5045222;28;20037;-82
2024/04/03 10:02:49;;;;;;;9.20;3.55;;;15.60;95.60;;;;;;5028872;28;20552;-82
2024/04/03 10:05:39;;;;;;;7.15;3.63;;;15.60;95.30;;;;;;5045826;28;20068;-81
2024/04/03 10:08:32;;;;;;;5.47;2.97;;;15.80;95.50;;;;;;5043244;28;20412;-77
2024/04/03 10:11:18;;;;;;;5.97;3.50;;;15.90;95.10;;;;;;5033269;28;20037;-77
2024/04/03 10:14:05;;;;;;;4.97;3.05;;;15.90;94.90;;;;;;5049892;28;20124;-78
2024/04/03 10:16:50;;;;;;;5.53;2.90;;;16.00;94.70;;;;;;5048646;28;20040;-77
2024/04/03 10:19:43;;;;;;;6.43;3.35;;;16.10;94.40;;;;;;5043683;28;20051;-83
2024/04/03 10:22:30;;;;;;;6.88;3.20;;;16.00;94.70;;;;;;5037888;28;20401;-77
2024/04/03 10:25:17;;;;;;;7.70;3.85;;;16.00;94.20;;;;;;5042771;28;20040;-77
2024/04/03 10:28:09;;;;;;;5.00;3.13;;;16.00;94.30;;;;;;5037112;28;20431;-78
2024/04/03 10:30:55;;;;;;;6.28;3.35;;;16.00;94.30;;;;;;5045707;28;20570;-76
2024/04/03 10:33:42;;;;;;;5.03;3.22;;;16.10;94.20;;;;;;5032661;28;20541;-76
2024/04/03 10:36:28;;;;;;;5.32;3.45;;;16.10;94.20;;;;;;5041710;28;20377;-74
2024/04/03 10:39:14;;;;;;;6.68;3.42;;;16.20;94.10;;;;;;5032379;28;20768;-76
2024/04/03 10:42:04;;;;;;;6.65;3.63;;;16.20;93.80;;;;;;5035510;28;20119;-77
2024/04/03 10:44:50;;;;;;;7.75;3.50;;;16.20;93.70;;;;;;5033725;28;20049;-74
2024/04/03 10:47:36;;;;;;;6.20;3.70;;;16.30;93.40;;;;;;5039295;28;20064;-77
2024/04/03 10:50:22;;;;;;;8.60;3.35;;;16.30;93.20;;;;;;5043172;28;20045;-78
2024/04/03 10:53:09;;;;;;;4.15;2.95;;;16.30;93.10;;;;;;5049337;28;20047;-77
2024/04/03 10:55:55;;;;;;;6.45;3.00;;;16.30;92.90;;;;;;5035410;28;20473;-78
2024/04/03 10:58:41;;;;;;;6.72;3.58;;;16.30;92.90;;;;;;5048947;28;20044;-77
2024/04/03 11:01:29;;;;;;;4.15;2.97;;;16.30;93.00;;;;;;5029088;28;20081;-78
2024/04/03 11:04:15;;;;;;;8.30;3.83;;;16.20;93.10;;;;;;5034882;28;20105;-79
2024/04/03 11:07:01;;;;;;;7.57;3.35;;;16.20;93.10;;;;;;5035859;28;20061;-78
2024/04/03 11:09:48;;;;;;;6.70;3.20;;;16.20;93.20;;;;;;5045415;28;20472;-78
2024/04/03 11:12:34;;;;;;;6.85;3.45;;;16.20;93.30;;;;;;5049198;28;20505;-77
2024/04/03 11:15:22;;;;;;;8.05;3.67;;;16.20;93.60;;;;;;5033284;28;20041;-76
2024/04/03 11:18:08;;;;;;;4.68;2.63;;;16.20;93.50;;;;;;5036576;28;20321;-79
2024/04/03 11:20:54;;;;;;;6.47;3.70;;;16.10;93.50;;;;;;5048833;28;20378;-77
2024/04/03 11:23:40;;;;;;;7.68;3.17;;;16.00;93.50;;;;;;5048596;28;20064;-78
2024/04/03 11:26:27;;;;;;;5.30;3.25;;;16.00;93.50;;;;;;5047362;28;20041;-77
2024/04/03 11:29:30;;;;;;;8.93;2.92;;;16.00;93.50;;;;;;5040565;28;20033;-78
2024/04/03 11:32:17;;;;;;;4.47;3.00;;;15.90;93.50;;;;;;5036511;28;20524;-78
2024/04/03 11:35:04;;;;;;;10.32;3.28;;;15.90;93.60;;;;;;5048258;28;20401;-79
2024/04/03 11:37:51;;;;;;;9.18;4.13;;;15.80;93.70;;;;;;5050267;28;20045;-79
2024/04/03 11:40:37;;;;;;;5.82;3.47;;;15.80;93.80;;;;;;5053449;28;20452;-78
2024/04/03 11:43:23;;;;;;;7.97;3.10;;;15.80;94.00;;;;;;5051991;28;20052;-79
2024/04/03 11:46:09;;;;;;;6.05;3.15;;;15.70;94.30;;;;;;5048298;28;20049;-69
2024/04/03 11:48:59;;;;;;;5.30;3.28;;;15.80;94.50;;;;;;5041864;28;20041;-69
2024/04/03 11:51:48;;;;;;;8.43;3.38;;;15.80;94.70;;;;;;5034229;28;20045;-69
2024/04/03 11:54:34;;;;;;;6.43;3.25;;;15.80;94.80;;;;;;5046768;28;20045;-70
2024/04/03 11:57:20;;;;;;;8.25;3.60;;;15.80;94.90;;;;;;5047440;28;20083;-69
2024/04/03 12:00:11;;;;;;;8.18;3.80;;;15.80;95.00;;;;;;5051488;28;20048;-69
2024/04/03 12:02:57;;;;;;;6.40;3.97;;;15.80;95.00;;;;;;5045487;28;20049;-69
2024/04/03 12:05:43;;;;;;;7.97;3.92;;;15.80;95.10;;;;;;5043832;28;20044;-69
2024/04/03 12:08:29;;;;;;;6.85;3.83;;;15.80;95.20;;;;;;5051570;28;20033;-69
2024/04/03 12:11:16;;;;;;;7.43;3.58;;;15.80;95.30;;;;;;5050977;28;20488;-68
2024/04/03 12:14:02;;;;;;;7.88;3.60;;;15.80;95.40;;;;;;5052738;28;20037;-70
2024/04/03 12:16:52;;;;;;;10.52;3.47;;;15.80;95.50;;;;;;5049404;28;20033;-69
2024/04/03 12:19:44;;;;;;;6.88;3.30;;;15.80;95.70;;;;;;5044480;28;20102;-69
2024/04/03 12:22:31;;;;;;;7.25;3.83;;;15.80;95.70;;;;;;5043551;28;20041;-69
2024/04/03 12:25:17;;;;;;;7.68;3.97;;;15.70;95.80;;;;;;5041650;28;20057;-69
2024/04/03 12:28:03;;;;;;;9.23;3.70;;;15.70;96.00;;;;;;5049414;28;20037;-69
2024/04/03 12:30:49;;;;;;;7.40;4.32;;;15.70;96.00;;;;;;5051157;28;20052;-68
2024/04/03 12:33:35;;;;;;;6.07;3.75;;;15.70;96.00;;;;;;5051908;28;20523;-69
2024/04/03 12:36:23;;;;;;;7.50;3.53;;;15.80;96.10;;;;;;5045208;28;20045;-69
2024/04/03 12:39:09;;;;;;;7.40;3.60;;;15.80;96.10;;;;;;5047005;28;20044;-69
2024/04/03 12:41:55;;;;;;;6.03;3.05;;;15.80;96.20;;;;;;5054687;28;20060;-69
2024/04/03 12:44:43;;;;;;;8.13;4.10;;;15.70;96.30;;;;;;5040139;28;20091;-69
2024/04/03 12:47:29;;;;;;;7.68;3.55;;;15.80;96.40;;;;;;5046770;28;20068;-68
2024/04/03 12:50:15;;;;;;;6.63;3.67;;;15.80;96.60;;;;;;5052390;28;20053;-69
2024/04/03 12:53:01;;;;;;;8.93;3.90;;;15.80;96.60;;;;;;5031383;28;20435;-69
2024/04/03 12:55:47;;;;;;;9.05;4.38;;;15.80;96.60;;;;;;5032056;28;20534;-68
2024/04/03 12:58:33;;;;;;;6.88;3.95;;;15.80;96.70;;;;;;5049643;28;20079;-69
2024/04/03 13:01:19;;;;;;;11.55;4.45;;;15.80;96.70;;;;;;5051423;28;20044;-70
2024/04/03 13:04:11;;;;;;;8.30;4.35;;;15.80;96.70;;;;;;5042445;28;20029;-69
2024/04/03 13:06:57;;;;;;;7.78;4.10;;;15.80;96.70;;;;;;5052522;28;20037;-70
2024/04/03 13:09:44;;;;;;;6.80;3.78;;;15.80;96.80;;;;;;5036795;28;20103;-70
2024/04/03 13:12:30;;;;;;;9.15;4.63;;;15.80;97.00;;;;;;5039045;28;20496;-69
2024/04/03 13:15:15;;;;;;;7.35;4.57;;;15.70;97.10;;;;;;5043738;28;20074;-70
2024/04/03 13:18:02;;;;;;;8.35;4.45;;;15.70;97.40;;;;;;5045267;28;20543;-69
2024/04/03 13:20:48;;;;;;;6.97;4.30;;;15.80;97.30;;;;;;5050529;28;20041;-69
2024/04/03 13:23:34;;;;;;;7.43;4.40;;;15.70;97.40;;;;;;5049374;28;20052;-69
2024/04/03 13:26:20;;;;;;;8.90;4.95;;;15.70;97.50;;;;;;5034934;28;20738;-69
2024/04/03 13:29:06;;;;;;;7.63;4.80;;;15.70;97.60;;;;;;5041485;28;20381;-69
2024/04/03 13:31:52;;;;;;;6.75;4.85;;;15.60;97.40;;;;;;5044458;28;20045;-70
2024/04/03 13:34:39;;;;;;;8.68;5.43;;;15.60;97.40;;;;;;5035559;28;20047;-69
2024/04/03 13:37:24;;;;;;;10.00;5.30;;;15.60;97.40;;;;;;5049320;28;20123;-69
2024/04/03 13:40:11;;;;;;;7.70;4.70;;;15.70;97.40;;;;;;5045673;28;20059;-69
2024/04/03 13:42:57;;;;;;;9.82;4.93;;;15.70;97.20;;;;;;5052194;28;20094;-69
2024/04/03 13:45:44;;;;;;;9.45;5.45;;;15.60;97.40;;;;;;5048631;28;20563;-69
2024/04/03 13:48:33;;;;;;;10.82;5.03;;;15.60;97.60;;;;;;5045628;28;20124;-69
2024/04/03 13:51:21;;;;;;;10.05;5.70;;;15.70;97.60;;;;;;5035182;28;20066;-69
2024/04/03 13:54:06;;;;;;;8.63;6.07;;;15.70;97.70;;;;;;5049429;28;20036;-69
2024/04/03 13:56:52;;;;;;;9.80;5.18;;;15.70;97.80;;;;;;5051074;28;20043;-83
2024/04/03 13:59:38;;;;;;;11.63;5.80;;;15.70;98.00;;;;;;5051483;28;20072;-83
2024/04/03 14:02:25;;;;;;;9.30;5.65;;;15.70;98.00;;;;;;5050536;28;20044;-83
2024/04/03 14:05:11;;;;;;;14.88;5.63;;;15.80;97.80;;;;;;5046474;28;20049;-82
2024/04/03 14:07:57;;;;;;;9.32;5.30;;;15.80;97.70;;;;;;5047285;28;20044;-82
2024/04/03 14:10:45;;;;;;;9.00;5.20;;;15.70;97.60;;;;;;5046896;28;20072;-82
2024/04/03 14:13:31;;;;;;;11.48;5.55;;;15.70;97.70;;;;;;5046800;28;20084;-82
2024/04/03 14:16:18;;;;;;;8.77;5.50;;;15.80;97.90;;;;;;5045341;28;20041;-82
2024/04/03 14:19:04;;;;;;;11.23;5.57;;;15.80;97.80;;;;;;5043150;28;20412;-82
2024/04/03 14:21:52;;;;;;;10.18;5.00;;;15.80;97.70;;;;;;5046970;28;20049;-80
2024/04/03 14:24:38;;;;;;;7.78;5.25;;;15.90;97.80;;;;;;5046566;28;20081;-81
2024/04/03 14:27:24;;;;;;;8.60;4.75;;;15.90;97.80;;;;;;5040401;28;20045;-74
2024/04/03 14:30:13;;;;;;;10.73;5.95;;;15.90;97.70;;;;;;5047146;28;20052;-83